createdAt,value
2023-10-07T00:02:33.537Z,4.70
2023-10-07T00:05:20.403Z,4.68
2023-10-07T00:08:07.481Z,4.67
2023-10-07T00:10:57.580Z,4.66
2023-10-07T00:13:44.753Z,4.64
2023-10-07T00:16:34.526Z,4.62
2023-10-07T00:19:22.024Z,4.64
2023-10-07T00:22:17.796Z,4.63
2023-10-07T00:25:05.194Z,4.62
2023-10-07T00:27:52.152Z,4.61
2023-10-07T00:30:39.330Z,4.61
2023-10-07T00:33:26.228Z,4.60
2023-10-07T00:36:13.242Z,4.60
2023-10-07T00:39:00.076Z,4.59
2023-10-07T00:41:47.960Z,4.59
2023-10-07T00:44:38.066Z,4.59
2023-10-07T00:47:06.061Z,4.57
2023-10-07T00:49:50.405Z,4.57
2023-10-07T00:52:50.859Z,4.56
2023-10-07T00:55:40.674Z,4.56
2023-10-07T00:58:31.177Z,4.51
2023-10-07T01:01:18.157Z,4.54
2023-10-07T01:04:11.182Z,4.49
2023-10-07T01:06:58.214Z,4.51
2023-10-07T01:09:45.250Z,4.51
2023-10-07T01:12:35.607Z,4.49
2023-10-07T01:15:24.033Z,4.48
2023-10-07T01:18:15.299Z,4.48
2023-10-07T01:20:54.275Z,4.46
2023-10-07T01:23:44.150Z,4.46
2023-10-07T01:26:37.499Z,4.45
2023-10-07T01:29:27.170Z,4.42
2023-10-07T01:32:23.188Z,4.42
2023-10-07T01:35:10.321Z,4.42
2023-10-07T01:38:06.350Z,4.41
2023-10-07T01:40:53.800Z,4.30
2023-10-07T01:43:40.893Z,4.40
2023-10-07T01:46:27.929Z,4.40
2023-10-07T01:49:33.376Z,4.38
2023-10-07T01:52:20.485Z,4.27
2023-10-07T01:55:07.424Z,4.34
2023-10-07T01:57:54.419Z,4.36
2023-10-07T02:00:41.684Z,4.37
2023-10-07T02:03:28.915Z,4.36
2023-10-07T02:06:16.234Z,4.21
2023-10-07T02:09:03.242Z,4.37
2023-10-07T02:11:50.275Z,4.37
2023-10-07T02:14:37.302Z,4.30
2023-10-07T02:17:25.058Z,4.38
2023-10-07T02:20:12.258Z,4.37
2023-10-07T02:23:19.021Z,4.38
2023-10-07T02:26:06.153Z,4.38
2023-10-07T02:28:56.381Z,4.36
2023-10-07T02:31:45.183Z,4.39
2023-10-07T02:34:32.184Z,4.38
2023-10-07T02:37:19.405Z,4.38
2023-10-07T02:40:09.097Z,4.36
2023-10-07T02:42:56.315Z,4.34
2023-10-07T02:45:43.137Z,4.38
2023-10-07T02:48:30.301Z,4.36
2023-10-07T02:51:17.253Z,4.39
2023-10-07T02:54:04.318Z,4.39
2023-10-07T02:56:51.213Z,4.39
2023-10-07T02:59:43.985Z,4.33
2023-10-07T03:02:33.778Z,4.38
2023-10-07T03:05:13.210Z,4.39
2023-10-07T03:08:04.866Z,4.38
2023-10-07T03:10:52.455Z,4.35
2023-10-07T03:13:39.387Z,4.40
2023-10-07T03:16:30.521Z,4.40
2023-10-07T03:19:17.733Z,4.41
2023-10-07T03:22:19.806Z,4.41
2023-10-07T03:25:06.690Z,4.42
2023-10-07T03:27:53.934Z,4.30
2023-10-07T03:30:40.865Z,4.43
2023-10-07T03:33:27.955Z,4.38
2023-10-07T03:35:57.709Z,4.39
2023-10-07T03:38:48.202Z,4.44
2023-10-07T03:41:35.172Z,4.45
2023-10-07T03:44:25.081Z,4.37
2023-10-07T03:47:16.185Z,4.44
2023-10-07T03:50:03.602Z,4.36
2023-10-07T03:52:50.614Z,4.44
2023-10-07T03:55:37.658Z,4.44
2023-10-07T03:58:24.717Z,4.45
2023-10-07T04:01:11.731Z,4.44
2023-10-07T04:04:00.271Z,4.38
2023-10-07T04:06:54.149Z,4.44
2023-10-07T04:09:40.982Z,4.43
2023-10-07T04:12:28.065Z,4.41
2023-10-07T04:15:14.995Z,4.44
2023-10-07T04:18:02.070Z,4.42
2023-10-07T04:20:49.381Z,4.43
2023-10-07T04:23:42.819Z,4.40
2023-10-07T04:26:29.640Z,4.41
2023-10-07T04:29:16.793Z,4.41
2023-10-07T04:32:13.813Z,4.40
2023-10-07T04:35:00.966Z,4.38
2023-10-07T04:37:47.958Z,4.38
2023-10-07T04:40:36.505Z,4.36
2023-10-07T04:43:09.594Z,4.35
2023-10-07T04:46:01.007Z,4.34
2023-10-07T04:49:03.106Z,4.32
2023-10-07T04:51:33.465Z,4.31
2023-10-07T04:54:23.342Z,4.26
2023-10-07T04:57:10.577Z,4.24
2023-10-07T04:59:58.266Z,4.28
2023-10-07T05:02:45.445Z,4.25
2023-10-07T05:05:32.312Z,4.24
2023-10-07T05:08:20.046Z,4.22
2023-10-07T05:11:13.902Z,4.10
2023-10-07T05:14:01.102Z,4.07
2023-10-07T05:16:48.565Z,4.16
2023-10-07T05:19:42.605Z,4.15
2023-10-07T05:22:35.534Z,4.12
2023-10-07T05:25:22.634Z,4.12
2023-10-07T05:28:09.692Z,4.07
2023-10-07T05:30:56.666Z,4.06
2023-10-07T05:33:45.925Z,4.04
2023-10-07T05:36:33.787Z,4.01
2023-10-07T05:39:20.729Z,3.98
2023-10-07T05:42:07.802Z,3.59
2023-10-07T05:44:58.240Z,3.94
2023-10-07T05:47:45.340Z,3.90
2023-10-07T05:50:33.095Z,3.87
2023-10-07T05:53:20.626Z,3.84
2023-10-07T05:56:07.598Z,3.65
2023-10-07T05:58:55.569Z,3.79
2023-10-07T06:01:42.756Z,3.77
2023-10-07T06:04:30.401Z,3.74
2023-10-07T06:07:17.483Z,3.72
2023-10-07T06:10:04.522Z,3.70
2023-10-07T06:12:51.562Z,3.68
2023-10-07T06:15:38.655Z,3.66
2023-10-07T06:18:26.502Z,3.63
2023-10-07T06:21:14.320Z,3.62
2023-10-07T06:24:01.889Z,3.58
2023-10-07T06:26:48.856Z,3.56
2023-10-07T06:29:36.969Z,3.55
2023-10-07T06:32:24.629Z,3.42
2023-10-07T06:35:14.841Z,3.49
2023-10-07T06:38:02.785Z,3.47
2023-10-07T06:40:49.863Z,3.44
2023-10-07T06:43:37.079Z,3.43
2023-10-07T06:46:24.172Z,3.39
2023-10-07T06:49:11.264Z,3.29
2023-10-07T06:51:58.385Z,3.38
2023-10-07T06:54:56.725Z,3.35
2023-10-07T06:57:52.736Z,3.34
2023-10-07T07:00:46.188Z,3.31
2023-10-07T07:03:33.211Z,3.32
2023-10-07T07:06:20.226Z,3.32
2023-10-07T07:09:07.210Z,3.29
2023-10-07T07:11:54.325Z,3.32
2023-10-07T07:14:41.213Z,3.32
2023-10-07T07:17:40.550Z,3.33
2023-10-07T07:20:12.340Z,3.32
2023-10-07T07:23:04.695Z,3.35
2023-10-07T07:25:51.848Z,3.37
2023-10-07T07:28:38.903Z,3.26
2023-10-07T07:31:26.000Z,3.40
2023-10-07T07:34:13.045Z,3.41
2023-10-07T07:36:59.954Z,3.43
2023-10-07T07:39:46.933Z,3.46
2023-10-07T07:42:21.037Z,3.34
2023-10-07T07:45:07.981Z,3.50
2023-10-07T07:47:55.055Z,3.38
2023-10-07T07:50:42.960Z,3.54
2023-10-07T07:53:29.964Z,3.58
2023-10-07T07:56:17.354Z,3.59
2023-10-07T07:58:49.901Z,3.63
2023-10-07T08:01:30.332Z,3.60
2023-10-07T08:04:00.901Z,3.68
2023-10-07T08:06:48.060Z,3.72
2023-10-07T08:09:35.370Z,3.73
2023-10-07T08:12:22.392Z,3.76
2023-10-07T08:15:09.448Z,3.80
2023-10-07T08:17:56.783Z,3.81
2023-10-07T08:20:57.408Z,3.81
2023-10-07T08:23:45.412Z,3.88
2023-10-07T08:26:32.461Z,3.92
2023-10-07T08:28:59.568Z,3.96
2023-10-07T08:32:00.440Z,3.98
2023-10-07T08:34:50.353Z,3.87
2023-10-07T08:37:37.427Z,4.06
2023-10-07T08:40:30.419Z,4.08
2023-10-07T08:43:21.375Z,4.11
2023-10-07T08:46:08.428Z,4.17
2023-10-07T08:48:56.956Z,4.21
2023-10-07T08:51:44.843Z,4.26
2023-10-07T08:54:41.422Z,4.30
2023-10-07T08:57:32.078Z,4.34
2023-10-07T09:00:19.138Z,4.34
2023-10-07T09:03:06.891Z,4.42
2023-10-07T09:05:54.034Z,4.36
2023-10-07T09:08:41.002Z,4.55
2023-10-07T09:11:28.995Z,4.60
2023-10-07T09:14:16.053Z,4.67
2023-10-07T09:17:03.258Z,4.72
2023-10-07T09:19:50.379Z,4.80
2023-10-07T09:22:37.439Z,4.87
2023-10-07T09:25:40.085Z,4.90
2023-10-07T09:28:27.450Z,5.04
2023-10-07T09:31:14.523Z,5.12
2023-10-07T09:34:01.627Z,5.22
2023-10-07T09:36:28.688Z,5.34
2023-10-07T09:39:13.820Z,5.20
2023-10-07T09:42:01.219Z,5.63
2023-10-07T09:44:48.344Z,5.80
2023-10-07T09:47:35.494Z,5.96
2023-10-07T09:50:22.656Z,6.11
2023-10-07T09:53:18.851Z,6.29
2023-10-07T09:56:26.952Z,6.45
2023-10-07T09:59:35.432Z,6.62
2023-10-07T10:02:40.754Z,6.84
2023-10-07T10:06:03.782Z,7.13
2023-10-07T10:08:56.970Z,7.44
2023-10-07T10:11:40.118Z,7.72
2023-10-07T10:14:18.441Z,8.00
2023-10-07T10:17:10.199Z,8.26
2023-10-07T10:20:10.625Z,8.54
2023-10-07T10:22:57.806Z,8.84
2023-10-07T10:25:35.391Z,9.11
2023-10-07T10:28:25.318Z,9.17
2023-10-07T10:31:12.606Z,9.60
2023-10-07T10:33:59.579Z,9.89
2023-10-07T10:36:46.520Z,10.12
2023-10-07T10:39:44.545Z,10.33
2023-10-07T10:42:31.893Z,10.52
2023-10-07T10:45:18.828Z,10.50
2023-10-07T10:48:14.738Z,10.92
2023-10-07T10:51:01.873Z,11.10
2023-10-07T10:53:50.000Z,11.31
2023-10-07T10:56:37.257Z,11.43
2023-10-07T10:59:24.149Z,11.56
2023-10-07T11:02:11.431Z,11.67
2023-10-07T11:04:58.942Z,11.82
2023-10-07T11:07:46.372Z,11.91
2023-10-07T11:10:33.671Z,11.99
2023-10-07T11:13:24.444Z,11.96
2023-10-07T11:16:21.302Z,12.09
2023-10-07T11:19:08.369Z,12.13
2023-10-07T11:22:00.543Z,12.14
2023-10-07T11:24:50.501Z,12.21
2023-10-07T11:27:38.315Z,12.24
2023-10-07T11:30:25.843Z,12.31
2023-10-07T11:33:13.145Z,12.40
2023-10-07T11:36:00.314Z,12.48
2023-10-07T11:38:27.959Z,12.62
2023-10-07T11:40:57.089Z,12.68
2023-10-07T11:43:24.479Z,12.75
2023-10-07T11:45:51.689Z,12.76
2023-10-07T11:48:38.793Z,12.82
2023-10-07T11:51:25.619Z,12.86
2023-10-07T11:54:12.609Z,12.91
2023-10-07T11:57:01.002Z,12.99
2023-10-07T11:59:48.066Z,13.14
2023-10-07T12:02:35.128Z,13.24
2023-10-07T12:05:22.289Z,13.41
2023-10-07T12:08:09.373Z,13.53
2023-10-07T12:10:56.551Z,13.61
2023-10-07T12:13:43.606Z,13.67
2023-10-07T12:16:30.654Z,13.76
2023-10-07T12:19:17.622Z,13.81
2023-10-07T12:22:06.401Z,13.84
2023-10-07T12:24:56.630Z,13.87
2023-10-07T12:27:43.597Z,13.89
2023-10-07T12:30:31.755Z,13.93
2023-10-07T12:33:33.208Z,13.93
2023-10-07T12:36:30.596Z,13.96
2023-10-07T12:39:17.765Z,13.96
2023-10-07T12:42:05.084Z,13.86
2023-10-07T12:44:52.137Z,13.90
2023-10-07T12:47:39.317Z,13.86
2023-10-07T12:50:42.009Z,13.83
2023-10-07T12:53:28.930Z,13.81
2023-10-07T12:56:16.101Z,13.73
2023-10-07T12:59:03.128Z,13.76
2023-10-07T13:01:50.265Z,13.69
2023-10-07T13:04:40.928Z,13.65
2023-10-07T13:07:30.961Z,13.59
2023-10-07T13:10:17.802Z,13.49
2023-10-07T13:13:05.338Z,13.39
2023-10-07T13:15:52.656Z,13.26
2023-10-07T13:18:39.958Z,13.08
2023-10-07T13:21:29.543Z,12.87
2023-10-07T13:24:20.687Z,12.58
2023-10-07T13:27:07.553Z,12.38
2023-10-07T13:29:54.783Z,12.10
2023-10-07T13:32:41.715Z,11.88
2023-10-07T13:35:29.475Z,11.63
2023-10-07T13:38:19.290Z,11.39
2023-10-07T13:41:06.458Z,11.17
2023-10-07T13:43:55.981Z,10.94
2023-10-07T13:46:43.154Z,10.74
2023-10-07T13:49:34.067Z,10.55
2023-10-07T13:52:21.179Z,10.26
2023-10-07T13:55:10.903Z,10.13
2023-10-07T13:57:58.042Z,9.71
2023-10-07T14:00:56.967Z,9.79
2023-10-07T14:03:44.485Z,9.61
2023-10-07T14:06:31.474Z,9.45
2023-10-07T14:09:18.589Z,9.27
2023-10-07T14:12:05.518Z,9.15
2023-10-07T14:14:52.559Z,9.01
2023-10-07T14:17:41.050Z,8.84
2023-10-07T14:20:30.854Z,8.74
2023-10-07T14:23:17.930Z,8.61
2023-10-07T14:26:04.922Z,8.48
2023-10-07T14:28:52.025Z,8.40
2023-10-07T14:31:39.039Z,8.29
2023-10-07T14:34:25.950Z,8.21
2023-10-07T14:37:13.099Z,8.12
2023-10-07T14:40:00.255Z,8.01
2023-10-07T14:42:47.284Z,7.90
2023-10-07T14:45:34.232Z,7.85
2023-10-07T14:48:22.236Z,7.76
2023-10-07T14:51:09.706Z,7.68
2023-10-07T14:53:57.375Z,7.60
2023-10-07T14:56:44.290Z,7.49
2023-10-07T14:59:31.351Z,7.45
2023-10-07T15:02:18.357Z,7.38
2023-10-07T15:05:05.516Z,7.31
2023-10-07T15:07:53.159Z,7.24
2023-10-07T15:10:42.223Z,7.18
2023-10-07T15:13:29.309Z,7.11
2023-10-07T15:16:16.290Z,7.05
2023-10-07T15:19:05.636Z,6.98
2023-10-07T15:21:52.621Z,6.90
2023-10-07T15:24:39.627Z,6.80
2023-10-07T15:27:26.584Z,6.79
2023-10-07T15:30:13.500Z,6.73
2023-10-07T15:33:00.516Z,6.68
2023-10-07T15:35:47.452Z,6.62
2023-10-07T15:38:35.354Z,6.57
2023-10-07T15:41:22.466Z,6.52
2023-10-07T15:44:09.743Z,6.24
2023-10-07T15:46:56.618Z,6.41
2023-10-07T15:49:44.015Z,6.34
2023-10-07T15:52:30.975Z,6.28
2023-10-07T15:55:18.197Z,6.23
2023-10-07T15:58:05.246Z,6.18
2023-10-07T16:00:55.332Z,6.00
2023-10-07T16:03:42.647Z,6.06
2023-10-07T16:06:30.241Z,6.04
2023-10-07T16:09:17.165Z,6.00
2023-10-07T16:12:07.160Z,5.96
2023-10-07T16:14:54.156Z,5.90
2023-10-07T16:17:41.564Z,5.87
2023-10-07T16:20:29.390Z,5.77
2023-10-07T16:23:21.519Z,5.59
2023-10-07T16:26:09.559Z,5.71
2023-10-07T16:28:57.924Z,5.68
2023-10-07T16:31:44.820Z,5.64
2023-10-07T16:34:31.919Z,5.60
2023-10-07T16:37:18.799Z,5.56
2023-10-07T16:40:06.110Z,5.20
2023-10-07T16:42:53.084Z,5.21
2023-10-07T16:45:40.023Z,5.45
2023-10-07T16:48:27.259Z,5.42
2023-10-07T16:51:18.397Z,5.34
2023-10-07T16:54:05.390Z,5.17
2023-10-07T16:56:52.918Z,5.30
2023-10-07T16:59:40.263Z,5.26
2023-10-07T17:02:27.607Z,5.21
2023-10-07T17:05:14.698Z,5.19
2023-10-07T17:08:01.783Z,5.17
2023-10-07T17:10:48.858Z,5.15
2023-10-07T17:13:36.262Z,5.10
2023-10-07T17:16:23.423Z,5.06
2023-10-07T17:19:10.699Z,5.03
2023-10-07T17:21:58.546Z,5.01
2023-10-07T17:24:45.543Z,4.99
2023-10-07T17:27:32.475Z,4.97
2023-10-07T17:30:19.559Z,4.94
2023-10-07T17:33:07.208Z,4.91
2023-10-07T17:35:58.088Z,4.90
2023-10-07T17:38:45.098Z,4.83
2023-10-07T17:41:32.158Z,4.86
2023-10-07T17:44:19.287Z,4.84
2023-10-07T17:47:06.414Z,4.82
2023-10-07T17:49:53.527Z,4.77
2023-10-07T17:52:40.781Z,4.78
2023-10-07T17:55:27.968Z,4.76
2023-10-07T17:58:15.118Z,4.75
2023-10-07T18:01:02.219Z,4.72
2023-10-07T18:03:49.507Z,4.71
2023-10-07T18:06:36.641Z,4.65
2023-10-07T18:09:23.593Z,4.68
2023-10-07T18:12:10.703Z,4.66
2023-10-07T18:14:57.820Z,4.64
2023-10-07T18:17:44.906Z,4.64
2023-10-07T18:20:35.152Z,4.61
2023-10-07T18:23:22.191Z,4.51
2023-10-07T18:26:14.985Z,4.58
2023-10-07T18:29:19.618Z,4.56
2023-10-07T18:32:11.594Z,4.51
2023-10-07T18:35:35.721Z,4.43
2023-10-07T18:38:29.216Z,4.49
2023-10-07T18:41:16.288Z,4.50
2023-10-07T18:44:03.732Z,4.45
2023-10-07T18:46:50.862Z,4.44
2023-10-07T18:49:37.905Z,4.41
2023-10-07T18:52:24.995Z,4.42
2023-10-07T18:55:12.254Z,4.41
2023-10-07T18:57:59.764Z,4.40
2023-10-07T19:00:46.817Z,4.38
2023-10-07T19:03:34.121Z,4.37
2023-10-07T19:06:21.140Z,4.30
2023-10-07T19:09:08.226Z,4.35
2023-10-07T19:11:55.887Z,4.32
2023-10-07T19:14:42.893Z,4.33
2023-10-07T19:17:29.994Z,4.32
2023-10-07T19:20:17.282Z,4.30
2023-10-07T19:23:04.253Z,4.30
2023-10-07T19:25:51.301Z,4.28
2023-10-07T19:28:38.152Z,4.27
2023-10-07T19:31:31.567Z,4.22
2023-10-07T19:34:18.521Z,4.25
2023-10-07T19:37:05.684Z,4.24
2023-10-07T19:39:52.501Z,4.23
2023-10-07T19:42:39.639Z,4.20
2023-10-07T19:45:27.309Z,4.20
2023-10-07T19:48:14.471Z,4.19
2023-10-07T19:51:01.386Z,4.19
2023-10-07T19:53:48.568Z,4.17
2023-10-07T19:56:35.561Z,4.15
2023-10-07T19:59:22.691Z,4.15
2023-10-07T20:02:09.784Z,4.13
2023-10-07T20:04:57.312Z,4.12
2023-10-07T20:07:44.299Z,4.10
2023-10-07T20:10:31.572Z,4.08
2023-10-07T20:13:18.897Z,4.06
2023-10-07T20:16:05.982Z,4.04
2023-10-07T20:18:53.093Z,4.05
2023-10-07T20:21:40.052Z,3.99
2023-10-07T20:24:27.464Z,4.01
2023-10-07T20:27:14.579Z,4.01
2023-10-07T20:30:02.275Z,3.99
2023-10-07T20:32:51.117Z,3.98
2023-10-07T20:35:38.255Z,3.98
2023-10-07T20:38:25.416Z,3.96
2023-10-07T20:41:17.483Z,3.93
2023-10-07T20:44:04.546Z,3.93
2023-10-07T20:46:51.764Z,3.91
2023-10-07T20:49:38.662Z,3.90
2023-10-07T20:52:26.970Z,3.89
2023-10-07T20:55:14.024Z,3.89
2023-10-07T20:58:01.003Z,3.87
2023-10-07T21:00:48.015Z,3.87
2023-10-07T21:03:35.120Z,3.85
2023-10-07T21:06:22.154Z,3.80
2023-10-07T21:09:11.540Z,3.81
2023-10-07T21:11:58.927Z,3.80
2023-10-07T21:14:46.022Z,3.81
2023-10-07T21:17:33.065Z,3.67
2023-10-07T21:20:20.287Z,3.72
2023-10-07T21:23:07.437Z,3.76
2023-10-07T21:26:05.643Z,3.70
2023-10-07T21:28:52.746Z,3.72
2023-10-07T21:31:40.123Z,3.73
2023-10-07T21:34:27.030Z,3.72
2023-10-07T21:37:13.966Z,3.71
2023-10-07T21:40:00.852Z,3.70
2023-10-07T21:42:47.843Z,3.68
2023-10-07T21:45:34.848Z,3.68
2023-10-07T21:48:21.907Z,3.67
2023-10-07T21:51:08.963Z,3.67
2023-10-07T21:53:56.507Z,3.65
2023-10-07T21:56:43.580Z,3.63
2023-10-07T21:59:30.605Z,3.64
2023-10-07T22:02:17.614Z,3.62
2023-10-07T22:05:04.758Z,3.61
2023-10-07T22:07:51.860Z,3.60
2023-10-07T22:10:47.458Z,3.59
2023-10-07T22:13:34.634Z,3.58
2023-10-07T22:16:21.685Z,3.58
2023-10-07T22:19:08.793Z,3.56
2023-10-07T22:21:55.876Z,3.55
2023-10-07T22:24:42.871Z,3.54
2023-10-07T22:27:29.852Z,3.53
2023-10-07T22:30:16.689Z,3.51
2023-10-07T22:33:07.196Z,3.51
2023-10-07T22:35:56.651Z,3.50
2023-10-07T22:38:43.840Z,3.50
2023-10-07T22:41:30.841Z,3.49
2023-10-07T22:44:18.039Z,3.12
2023-10-07T22:47:05.031Z,3.48
2023-10-07T22:49:52.167Z,3.46
2023-10-07T22:52:39.191Z,3.40
2023-10-07T22:55:29.397Z,3.44
2023-10-07T22:58:16.750Z,3.42
2023-10-07T23:01:06.954Z,3.41
2023-10-07T23:03:56.726Z,3.42
2023-10-07T23:06:52.937Z,3.40
2023-10-07T23:09:39.883Z,3.31
2023-10-07T23:12:36.760Z,2.99
2023-10-07T23:15:23.888Z,3.37
2023-10-07T23:18:11.007Z,3.36
2023-10-07T23:21:03.824Z,3.32
2023-10-07T23:23:50.813Z,3.34
2023-10-07T23:26:37.846Z,3.33
2023-10-07T23:29:27.836Z,3.30
2023-10-07T23:32:16.682Z,3.29
2023-10-07T23:35:03.702Z,3.29
2023-10-07T23:37:50.651Z,3.28
2023-10-07T23:40:37.611Z,3.26
2023-10-07T23:43:26.304Z,3.24
2023-10-07T23:46:13.309Z,3.23
2023-10-07T23:49:00.444Z,3.21
2023-10-07T23:51:47.685Z,3.21
2023-10-07T23:54:34.698Z,3.19
2023-10-07T23:57:21.583Z,3.14
